Camp Pendleton MCAS (Munn Field) Airport
KNFG : now visible

Airfield :











YOU CAN JOIN US ON...

 
LOGIN :

Register | Disclaimer

   EN    FR    IT 

 









Legend :    VFR   Marginal VFR   IFR   Intensive IFR   Very Intensive IFR
Visi :
Ceiling :
>= 8 km
>= 3000ft
5 to 8 km
1000 to 3000 ft
1500m to 5 km
500 to 1000 ft
800 to 1500m
200 to 500 ft
< 800m
< 200 ft
Symbols :   Thunderstorms  Fog  Heavy snow  Heavy precipitations  Wind > 20 kt






- Airport Elevation : 78 ft


KNFG - Camp Pendleton MCAS (Munn Field)

CURRENT METAR :
  • 050655Z 00000KT 7SM OVC013 18/14 A2984 RMK AO2 SLP103 T01830144 $

EXPIRED METARs :
  • 050645Z 24003KT 8SM OVC015 18/14 A2984 RMK AO2 T01830144 $
  • 050611Z 00000KT 10SM OVC014 19/14 A2984 RMK AO2 T01890139 $
  • 050555Z 00000KT 10SM OVC015 19/14 A2984 RMK AO2 SLP103 T01890139 10206 20189 51007 $
  • 050507Z 26003KT 10SM OVC015 19/14 A2984 RMK AO2 T01890139 $
  • 050455Z 23004KT 10SM OVC014 19/14 A2984 RMK AO2 SLP103 T01890139 $

TAF TAF KNFG
Valid from the 05 at 03:00 until the 06 at 03:00 UTC


0503/0603 VRB05KT 9999 OVC014 QNH2981INS
TEMPO 0507/0513 4800 BR OVC009
FM051700 22008KT 9999 OVC015 QNH2983INS T15/0513Z T22/0521Z
KZLA FIR / North America



MET'MAP, your aeronautical weather chart ! - Copyright ORBIFLY December 2007 - Disclaimer

ORBIFLY MET'MAP TEAM :

Programming & Development : Alexandra Zaïnal
Concept & original design : Baudouin d'Aumeries
Assistance for programming : Marc-Olivier Méhu
Technical & hardware support : Manuel Goepfert

Contact : metmap@orbifly.com




SOURCES & CREDITS :

   NOAA       Earth
Advisory